createdAt,value
2022-12-15T05:00:31.875Z,92.20
2022-12-15T05:01:32.988Z,91.99
2022-12-15T05:02:33.012Z,91.88
2022-12-15T05:03:33.310Z,91.77
2022-12-15T05:04:32.912Z,91.67
2022-12-15T05:05:32.854Z,91.63
2022-12-15T05:06:32.796Z,91.09
2022-12-15T05:07:32.787Z,90.99
2022-12-15T05:08:32.785Z,91.35
2022-12-15T05:09:32.828Z,91.56
2022-12-15T05:10:32.786Z,91.56
2022-12-15T05:11:32.759Z,91.99
2022-12-15T05:12:32.808Z,92.46
2022-12-15T05:13:33.146Z,92.46
2022-12-15T05:14:32.733Z,92.77
2022-12-15T05:15:32.781Z,92.88
2022-12-15T05:16:32.712Z,92.84
2022-12-15T05:17:35.609Z,92.88
2022-12-15T05:18:32.753Z,92.84
2022-12-15T05:19:32.700Z,92.99
2022-12-15T05:20:32.688Z,93.41
2022-12-15T05:21:32.659Z,93.84
2022-12-15T05:22:32.663Z,94.17
2022-12-15T05:23:33.060Z,94.38
2022-12-15T05:24:32.621Z,94.48
2022-12-15T05:25:32.632Z,94.55
2022-12-15T05:26:32.613Z,94.44
2022-12-15T05:27:32.603Z,94.87
2022-12-15T05:28:32.594Z,95.19
2022-12-15T05:29:32.743Z,95.29
2022-12-15T05:30:32.632Z,95.51
2022-12-15T05:31:32.672Z,95.62
2022-12-15T05:32:32.587Z,95.40
2022-12-15T05:33:33.020Z,95.25
2022-12-15T05:34:32.544Z,95.25
2022-12-15T05:35:32.541Z,94.82
2022-12-15T05:36:32.524Z,94.51
2022-12-15T05:37:32.495Z,94.29
2022-12-15T05:38:32.499Z,94.51
2022-12-15T05:39:32.512Z,94.51
2022-12-15T05:40:32.571Z,94.40
2022-12-15T05:41:32.502Z,94.40
2022-12-15T05:42:32.417Z,94.14
2022-12-15T05:43:32.787Z,93.72
2022-12-15T05:44:32.415Z,93.61
2022-12-15T05:45:32.427Z,93.29
2022-12-15T05:46:32.432Z,93.08
2022-12-15T05:47:32.350Z,92.86
2022-12-15T05:48:32.380Z,92.54
2022-12-15T05:49:32.334Z,92.18
2022-12-15T05:50:32.350Z,91.80
2022-12-15T05:51:32.370Z,91.58
2022-12-15T05:52:32.344Z,91.48
2022-12-15T05:53:32.665Z,91.16
2022-12-15T05:54:32.298Z,91.12
2022-12-15T05:55:32.281Z,91.16
2022-12-15T05:56:32.308Z,91.05
2022-12-15T05:57:32.290Z,90.94
2022-12-15T05:58:32.259Z,91.16
2022-12-15T05:59:32.234Z,91.27
2022-12-15T06:00:32.271Z,90.94
2022-12-15T06:01:32.370Z,89.88
2022-12-15T06:02:32.287Z,89.81
2022-12-15T06:03:32.723Z,90.03
2022-12-15T06:04:32.250Z,89.81
2022-12-15T06:05:32.187Z,90.03
2022-12-15T06:06:32.224Z,89.60
2022-12-15T06:07:32.168Z,89.39
2022-12-15T06:08:32.185Z,88.96
2022-12-15T06:09:32.146Z,88.75
2022-12-15T06:10:32.154Z,88.32
2022-12-15T06:11:32.131Z,88.10
2022-12-15T06:12:32.118Z,88.10
2022-12-15T06:13:32.535Z,88.25
2022-12-15T06:14:32.089Z,88.89
2022-12-15T06:15:32.089Z,89.47
2022-12-15T06:16:32.239Z,90.00
2022-12-15T06:17:32.140Z,90.53
2022-12-15T06:18:32.215Z,91.03
2022-12-15T06:19:32.093Z,90.28
2022-12-15T06:20:32.103Z,89.96
2022-12-15T06:21:32.097Z,89.75
2022-12-15T06:22:32.077Z,89.75
2022-12-15T06:23:32.439Z,89.64
2022-12-15T06:24:32.058Z,89.64
2022-12-15T06:25:32.055Z,89.53
2022-12-15T06:26:32.045Z,89.32
2022-12-15T06:27:32.047Z,89.32
2022-12-15T06:28:31.986Z,89.06
2022-12-15T06:29:32.015Z,88.85
2022-12-15T06:30:31.950Z,88.85
2022-12-15T06:31:32.024Z,88.75
2022-12-15T06:32:32.005Z,88.64
2022-12-15T06:33:32.304Z,88.43
2022-12-15T06:34:31.980Z,88.32
2022-12-15T06:35:31.894Z,88.43
2022-12-15T06:36:31.896Z,88.43
2022-12-15T06:37:31.936Z,88.32
2022-12-15T06:38:31.875Z,88.21
2022-12-15T06:39:31.848Z,88.10
2022-12-15T06:40:37.690Z,88.00
2022-12-15T06:41:31.856Z,87.82
2022-12-15T06:42:31.840Z,88.04
2022-12-15T06:43:32.260Z,88.15
2022-12-15T06:44:31.830Z,87.40
2022-12-15T06:45:31.790Z,87.51
2022-12-15T06:46:32.146Z,87.40
2022-12-15T06:47:31.802Z,86.97
2022-12-15T06:48:31.785Z,86.76
2022-12-15T06:49:31.836Z,86.76
2022-12-15T06:50:31.765Z,86.69
2022-12-15T06:51:31.744Z,86.80
2022-12-15T06:52:31.749Z,86.80
2022-12-15T06:53:32.184Z,86.80
2022-12-15T06:54:31.750Z,86.58
2022-12-15T06:55:31.705Z,86.69
2022-12-15T06:56:34.160Z,86.94
2022-12-15T06:57:31.728Z,87.16
2022-12-15T06:58:31.665Z,87.59
2022-12-15T06:59:31.659Z,87.80
2022-12-15T07:00:31.680Z,88.01
2022-12-15T07:01:31.958Z,88.23
2022-12-15T07:02:31.772Z,88.29
2022-12-15T07:03:32.504Z,88.08
2022-12-15T07:04:31.618Z,87.87
2022-12-15T07:05:32.179Z,87.97
2022-12-15T07:06:31.783Z,87.76
2022-12-15T07:07:31.581Z,87.65
2022-12-15T07:08:37.926Z,87.29
2022-12-15T07:09:31.610Z,87.18
2022-12-15T07:10:31.592Z,87.08
2022-12-15T07:11:31.539Z,87.08
2022-12-15T07:12:31.537Z,87.18
2022-12-15T07:13:31.891Z,87.18
2022-12-15T07:14:31.522Z,86.97
2022-12-15T07:15:31.503Z,86.54
2022-12-15T07:16:31.619Z,86.54
2022-12-15T07:17:31.486Z,86.87
2022-12-15T07:18:31.488Z,86.76
2022-12-15T07:19:31.483Z,86.65
2022-12-15T07:20:31.536Z,86.65
2022-12-15T07:21:31.473Z,86.11
2022-12-15T07:22:31.584Z,85.97
2022-12-15T07:23:53.241Z,85.58
2022-12-15T07:24:31.437Z,85.27
2022-12-15T07:25:31.417Z,85.33
2022-12-15T07:26:32.189Z,86.29
2022-12-15T07:27:31.407Z,85.12
2022-12-15T07:28:31.894Z,84.91
2022-12-15T07:29:31.385Z,84.69
2022-12-15T07:30:36.750Z,84.48
2022-12-15T07:31:31.413Z,83.95
2022-12-15T07:32:31.354Z,84.09
2022-12-15T07:33:31.812Z,84.30
2022-12-15T07:34:31.400Z,84.84
2022-12-15T07:35:31.462Z,85.90
2022-12-15T07:36:31.330Z,85.27
2022-12-15T07:37:31.346Z,84.73
2022-12-15T07:38:31.278Z,84.63
2022-12-15T07:39:31.388Z,84.20
2022-12-15T07:40:31.281Z,84.41
2022-12-15T07:41:31.326Z,84.23
2022-12-15T07:42:31.331Z,84.12
2022-12-15T07:43:31.982Z,84.77
2022-12-15T07:44:31.370Z,84.77
2022-12-15T07:45:31.338Z,84.45
2022-12-15T07:46:31.420Z,84.34
2022-12-15T07:47:32.472Z,84.34
2022-12-15T07:48:31.223Z,84.66
2022-12-15T07:49:31.354Z,84.55
2022-12-15T07:50:31.210Z,84.45
2022-12-15T07:51:31.159Z,84.30
2022-12-15T07:52:31.526Z,83.98
2022-12-15T07:53:31.625Z,83.98
2022-12-15T07:54:31.181Z,83.77
2022-12-15T07:55:57.149Z,83.77
2022-12-15T07:56:34.493Z,83.13
2022-12-15T07:57:31.265Z,83.02
2022-12-15T07:58:31.105Z,83.13
2022-12-15T07:59:31.087Z,82.92
2022-12-15T08:00:31.070Z,82.92
2022-12-15T08:01:31.186Z,82.70
2022-12-15T08:02:31.317Z,82.38
2022-12-15T08:03:31.520Z,82.17
2022-12-15T08:04:31.055Z,81.85
2022-12-15T08:05:31.053Z,81.63
2022-12-15T08:06:31.019Z,81.96
2022-12-15T08:07:31.143Z,82.38
2022-12-15T08:08:31.591Z,82.59
2022-12-15T08:09:31.126Z,82.38
2022-12-15T08:10:31.101Z,82.59
2022-12-15T08:11:30.997Z,82.59
2022-12-15T08:12:31.000Z,82.70
2022-12-15T08:14:01.507Z,82.70
2022-12-15T08:14:30.941Z,82.59
2022-12-15T08:15:31.024Z,82.81
2022-12-15T08:16:31.159Z,83.02
2022-12-15T08:17:30.945Z,83.13
2022-12-15T08:18:31.698Z,83.02
2022-12-15T08:19:31.065Z,82.92
2022-12-15T08:20:30.886Z,83.13
2022-12-15T08:21:31.230Z,83.34
2022-12-15T08:22:30.887Z,83.45
2022-12-15T08:23:31.383Z,83.45
2022-12-15T08:24:30.887Z,83.41
2022-12-15T08:25:30.871Z,83.31
2022-12-15T08:26:31.593Z,83.20
2022-12-15T08:27:30.941Z,83.31
2022-12-15T08:28:30.832Z,83.09
2022-12-15T08:30:30.830Z,83.20
2022-12-15T08:31:30.817Z,83.27
2022-12-15T08:32:30.782Z,83.41
2022-12-15T08:33:31.173Z,83.41
2022-12-15T08:34:30.749Z,83.59
2022-12-15T08:35:55.808Z,83.48
2022-12-15T08:36:30.768Z,83.27
2022-12-15T08:37:30.749Z,83.48
2022-12-15T08:38:30.734Z,83.59
2022-12-15T08:39:30.785Z,83.16
2022-12-15T08:40:30.692Z,82.63
2022-12-15T08:41:30.676Z,83.06
2022-12-15T08:42:30.705Z,83.37
2022-12-15T08:43:31.049Z,82.95
2022-12-15T08:44:30.713Z,82.73
2022-12-15T08:45:30.715Z,83.06
2022-12-15T08:46:30.676Z,83.27
2022-12-15T08:47:30.667Z,83.27
2022-12-15T08:48:30.684Z,83.06
2022-12-15T08:49:30.606Z,83.16
2022-12-15T08:50:30.605Z,83.27
2022-12-15T08:51:30.667Z,83.27
2022-12-15T08:52:30.593Z,83.37
2022-12-15T08:53:31.872Z,83.23
2022-12-15T08:54:30.564Z,83.27
2022-12-15T08:55:30.560Z,83.69
2022-12-15T08:56:30.601Z,83.91
2022-12-15T08:57:30.580Z,84.12
2022-12-15T08:58:30.589Z,84.08
2022-12-15T08:59:30.516Z,84.30
2022-12-15T09:00:30.751Z,84.30
2022-12-15T09:01:30.687Z,83.98
2022-12-15T09:02:30.611Z,83.94
2022-12-15T09:03:30.932Z,83.94
2022-12-15T09:04:30.587Z,83.83
2022-12-15T09:05:30.464Z,83.58
2022-12-15T09:06:30.429Z,83.48
2022-12-15T09:07:30.445Z,83.26
2022-12-15T09:08:30.423Z,82.84
2022-12-15T09:09:30.451Z,82.73
2022-12-15T09:10:30.394Z,82.69
2022-12-15T09:11:30.427Z,82.48
2022-12-15T09:12:30.424Z,81.84
2022-12-15T09:13:30.783Z,81.41
2022-12-15T09:14:30.355Z,81.41
2022-12-15T09:16:07.074Z,81.59
2022-12-15T09:16:30.473Z,81.70
2022-12-15T09:17:30.368Z,81.13
2022-12-15T09:18:30.395Z,80.77
2022-12-15T09:19:30.386Z,80.14
2022-12-15T09:20:30.365Z,79.89
2022-12-15T09:21:30.435Z,79.36
2022-12-15T09:22:30.389Z,78.26
2022-12-15T09:23:30.943Z,77.59
2022-12-15T09:24:35.180Z,76.74
2022-12-15T09:25:30.326Z,76.07
2022-12-15T09:26:30.265Z,75.71
2022-12-15T09:27:31.130Z,75.96
2022-12-15T09:28:30.231Z,75.61
2022-12-15T09:29:31.029Z,76.07
2022-12-15T09:30:30.330Z,75.85
2022-12-15T09:31:30.444Z,76.07
2022-12-15T09:32:30.206Z,76.74
2022-12-15T09:33:30.582Z,77.06
2022-12-15T09:34:30.226Z,76.92
2022-12-15T09:35:30.185Z,76.21
2022-12-15T09:36:30.181Z,76.53
2022-12-15T09:37:30.175Z,76.95
2022-12-15T09:38:30.143Z,76.92
2022-12-15T09:39:30.119Z,76.21
2022-12-15T09:40:30.138Z,76.78
2022-12-15T09:41:30.105Z,77.69
2022-12-15T09:42:30.083Z,77.66
2022-12-15T09:43:34.760Z,76.78
2022-12-15T09:44:30.095Z,75.29
2022-12-15T09:45:30.057Z,75.51
2022-12-15T09:46:30.127Z,75.40
2022-12-15T09:47:30.035Z,75.71
2022-12-15T09:48:30.067Z,75.61
2022-12-15T09:49:30.050Z,74.94
2022-12-15T09:50:30.001Z,74.84
2022-12-15T09:51:30.003Z,75.23
2022-12-15T09:52:29.986Z,75.01
2022-12-15T09:53:54.209Z,74.48
2022-12-15T09:54:30.047Z,74.24
2022-12-15T09:55:30.018Z,73.92
2022-12-15T09:56:29.959Z,73.28
2022-12-15T09:57:29.963Z,73.39
2022-12-15T09:58:29.937Z,73.36
2022-12-15T09:59:29.926Z,73.36
2022-12-15T10:00:29.923Z,73.04
2022-12-15T10:01:29.983Z,72.72
2022-12-15T10:02:30.588Z,72.48
2022-12-15T10:03:30.597Z,72.37
2022-12-15T10:04:29.918Z,72.16
2022-12-15T10:05:50.040Z,72.13
2022-12-15T10:06:33.358Z,71.67
2022-12-15T10:07:29.866Z,70.93
2022-12-15T10:08:29.833Z,70.97
2022-12-15T10:09:29.862Z,71.28
2022-12-15T10:10:29.803Z,71.49
2022-12-15T10:11:29.857Z,71.70
2022-12-15T10:12:29.796Z,72.13
2022-12-15T10:13:30.006Z,71.73
2022-12-15T10:14:29.769Z,72.16
2022-12-15T10:15:29.837Z,72.80
2022-12-15T10:16:29.894Z,73.25
2022-12-15T10:17:29.756Z,73.88
2022-12-15T10:18:29.746Z,74.31
2022-12-15T10:19:29.731Z,74.55
2022-12-15T10:20:29.770Z,74.87
2022-12-15T10:21:29.723Z,74.98
2022-12-15T10:22:29.690Z,75.43
2022-12-15T10:23:30.253Z,75.86
2022-12-15T10:25:07.958Z,76.28
2022-12-15T11:24:35.065Z,75.69
2022-12-15T11:25:36.004Z,75.48
2022-12-15T11:26:07.221Z,75.55
2022-12-15T11:31:21.901Z,76.01
2022-12-15T11:32:14.949Z,76.01
2022-12-15T11:33:14.903Z,75.90
2022-12-15T11:34:14.928Z,76.43
2022-12-15T11:35:14.934Z,76.54
2022-12-15T11:36:14.912Z,76.64
2022-12-15T11:37:14.904Z,76.75
2022-12-15T11:38:14.878Z,76.54
2022-12-15T11:39:14.893Z,76.54
2022-12-15T11:40:14.841Z,76.64
2022-12-15T11:41:14.842Z,76.64
2022-12-15T11:42:14.849Z,76.75
2022-12-15T11:43:14.828Z,76.64
2022-12-15T11:44:14.812Z,76.75
2022-12-15T11:45:14.823Z,76.86
2022-12-15T11:46:14.780Z,76.96
2022-12-15T11:47:14.789Z,77.03
2022-12-15T11:48:14.779Z,77.03
2022-12-15T11:49:14.788Z,76.72
2022-12-15T11:50:14.738Z,76.61
2022-12-15T11:51:14.797Z,76.40
2022-12-15T11:52:14.754Z,76.72
2022-12-15T11:53:14.751Z,76.92
2022-12-15T11:54:14.732Z,76.82
2022-12-15T11:55:14.687Z,76.78
2022-12-15T11:56:14.745Z,76.57
2022-12-15T11:57:14.687Z,76.36
2022-12-15T11:58:14.691Z,76.01
2022-12-15T11:59:16.255Z,75.34
2022-12-15T12:00:14.643Z,74.71
2022-12-15T12:01:14.698Z,74.50
2022-12-15T12:02:14.718Z,74.47
2022-12-15T12:03:14.669Z,73.52
2022-12-15T12:04:14.650Z,73.63
2022-12-15T12:05:15.323Z,73.87
2022-12-15T12:06:14.624Z,74.15
2022-12-15T12:07:14.570Z,74.47
2022-12-15T12:08:14.567Z,74.05
2022-12-15T12:09:14.550Z,73.83
2022-12-15T12:10:14.623Z,73.80
2022-12-15T12:11:14.666Z,73.70
2022-12-15T12:12:14.516Z,73.80
2022-12-15T12:13:14.538Z,73.38
2022-12-15T12:14:14.524Z,73.59
2022-12-15T12:15:14.503Z,73.49
2022-12-15T12:16:14.529Z,73.28
2022-12-15T12:17:14.631Z,72.92
2022-12-15T12:18:14.488Z,72.47
2022-12-15T12:19:14.508Z,72.27
2022-12-15T12:20:14.453Z,71.95
2022-12-15T12:21:14.458Z,72.40
2022-12-15T12:22:14.454Z,72.61
2022-12-15T12:23:14.401Z,73.07
2022-12-15T12:24:14.421Z,73.80
2022-12-15T12:25:14.513Z,74.22
2022-12-15T12:26:14.475Z,73.80
2022-12-15T12:27:14.397Z,74.22
2022-12-15T12:28:14.402Z,74.47
2022-12-15T12:29:14.350Z,74.99
2022-12-15T12:30:14.335Z,75.10
2022-12-15T12:31:14.370Z,74.85
2022-12-15T12:32:14.349Z,74.54
2022-12-15T12:33:14.324Z,74.43
2022-12-15T12:34:14.351Z,74.29
2022-12-15T12:35:32.209Z,73.77
2022-12-15T14:09:17.709Z,83.71
2022-12-15T14:10:18.710Z,83.67
2022-12-15T14:11:50.856Z,83.56
2022-12-15T14:12:18.677Z,83.56
2022-12-15T14:13:18.651Z,83.67
2022-12-15T14:14:18.668Z,83.98
2022-12-15T14:15:18.639Z,84.02
2022-12-15T14:16:18.858Z,84.02
2022-12-15T14:17:18.644Z,84.13
2022-12-15T14:18:18.590Z,84.02
2022-12-15T14:19:18.568Z,84.02
2022-12-15T14:20:18.568Z,84.02
2022-12-15T14:21:18.564Z,83.92
2022-12-15T14:22:23.295Z,84.23
2022-12-15T14:23:18.565Z,84.34
2022-12-15T14:24:38.148Z,84.23
2022-12-15T14:25:18.590Z,84.23
2022-12-15T14:26:18.529Z,84.13
2022-12-15T14:27:18.497Z,84.02
2022-12-15T14:28:18.490Z,84.13
2022-12-15T14:29:18.726Z,84.34
2022-12-15T14:30:18.484Z,84.66
2022-12-15T14:31:18.661Z,84.87
2022-12-15T14:32:18.487Z,84.87
2022-12-15T14:33:18.651Z,84.97
2022-12-15T14:34:18.432Z,84.97
2022-12-15T14:35:18.483Z,85.18
2022-12-15T14:36:18.409Z,84.87
2022-12-15T14:37:18.492Z,84.76
2022-12-15T14:38:18.419Z,84.66
2022-12-15T14:39:18.453Z,84.41
2022-12-15T14:40:19.089Z,84.41
2022-12-15T14:41:18.385Z,84.45
2022-12-15T14:42:18.403Z,84.34
2022-12-15T14:43:18.378Z,84.20
2022-12-15T15:03:25.210Z,84.45
2022-12-15T15:03:30.436Z,86.07
2022-12-15T15:04:31.265Z,86.07
2022-12-15T15:05:30.461Z,86.17
2022-12-15T15:06:30.350Z,86.28
2022-12-15T15:07:30.346Z,86.28
2022-12-15T15:08:30.789Z,86.38
2022-12-15T15:09:30.344Z,86.49
2022-12-15T15:10:30.348Z,86.49
2022-12-15T15:11:30.397Z,86.59
2022-12-15T15:12:30.293Z,86.59
2022-12-15T15:13:34.594Z,86.80
2022-12-15T15:14:30.282Z,86.70
2022-12-15T15:15:30.298Z,86.70
2022-12-15T15:16:30.254Z,86.80
2022-12-15T15:17:30.239Z,86.91
2022-12-15T15:20:51.475Z,87.12
2022-12-15T15:21:52.440Z,87.12
2022-12-15T15:22:52.473Z,87.33
2022-12-15T15:23:52.537Z,87.33
2022-12-15T15:24:52.489Z,87.44
2022-12-15T15:25:52.432Z,87.44
2022-12-15T15:26:52.434Z,87.44
2022-12-15T15:27:52.421Z,87.44
2022-12-15T15:28:52.387Z,87.33
2022-12-15T15:29:52.356Z,87.44
2022-12-15T15:30:56.135Z,87.54
2022-12-15T15:31:52.425Z,87.44
2022-12-15T15:32:52.351Z,87.54
2022-12-15T15:33:52.344Z,87.76
2022-12-15T15:34:52.561Z,87.79
2022-12-15T15:35:52.449Z,87.90
2022-12-15T15:36:52.324Z,88.01
2022-12-15T15:37:52.404Z,88.21
2022-12-15T15:38:52.348Z,88.21
2022-12-15T15:39:52.346Z,88.18
2022-12-15T15:40:52.344Z,88.28
2022-12-15T15:41:52.370Z,88.32
2022-12-15T15:42:52.293Z,88.32
2022-12-15T15:43:52.309Z,88.32
2022-12-15T15:44:52.319Z,88.43
2022-12-15T15:45:52.336Z,88.43
2022-12-15T15:46:52.257Z,88.43
2022-12-15T15:47:52.225Z,88.43
2022-12-15T15:48:52.234Z,88.32
2022-12-15T15:49:52.264Z,88.32
2022-12-15T15:50:52.253Z,88.32
2022-12-15T15:51:52.219Z,88.53
2022-12-15T15:52:52.205Z,88.64
2022-12-15T15:53:52.232Z,88.53
2022-12-15T15:54:52.206Z,88.53
2022-12-15T15:55:52.201Z,88.75
2022-12-15T15:56:52.168Z,88.95
2022-12-15T15:57:52.167Z,89.06
2022-12-15T15:58:52.146Z,89.17
2022-12-15T15:59:52.102Z,89.17
2022-12-15T16:00:52.126Z,89.06
2022-12-15T16:01:52.251Z,89.06
2022-12-15T16:02:52.333Z,89.06
2022-12-15T16:03:52.151Z,89.06
2022-12-15T16:04:52.059Z,89.06
2022-12-15T16:05:52.043Z,89.06
2022-12-15T16:06:52.114Z,89.06
2022-12-15T16:07:52.044Z,89.17
2022-12-15T16:08:52.041Z,89.27
2022-12-15T16:09:52.003Z,89.17
2022-12-15T16:10:52.061Z,89.06
2022-12-15T16:11:52.071Z,89.06
2022-12-15T16:12:52.096Z,88.95
2022-12-15T16:13:52.040Z,88.95
2022-12-15T16:14:51.984Z,89.06
2022-12-15T16:15:52.082Z,89.06
2022-12-15T16:16:51.925Z,89.17
2022-12-15T16:17:51.914Z,89.06
2022-12-15T16:18:52.465Z,88.95
2022-12-15T16:19:52.009Z,88.85
2022-12-15T16:20:51.938Z,88.75
2022-12-15T16:21:51.959Z,88.64
2022-12-15T16:22:51.913Z,88.53
2022-12-15T16:23:51.873Z,88.53
2022-12-15T16:24:51.872Z,88.43
2022-12-15T16:25:51.930Z,88.11
2022-12-15T16:26:51.892Z,87.90
2022-12-15T16:27:51.867Z,88.01
2022-12-15T16:28:51.810Z,87.79
2022-12-15T16:29:51.811Z,87.69
2022-12-15T16:30:51.944Z,87.58
2022-12-15T16:31:51.910Z,87.58
2022-12-15T16:32:51.821Z,87.48
2022-12-15T16:33:51.790Z,87.16
2022-12-15T16:34:51.749Z,87.05
2022-12-15T16:35:51.756Z,86.74
2022-12-15T16:36:51.761Z,86.95
2022-12-15T16:37:51.740Z,86.84
2022-12-15T16:38:51.702Z,86.84
2022-12-15T16:39:51.773Z,86.84
2022-12-15T16:40:51.697Z,86.63
2022-12-15T16:41:51.738Z,86.63
2022-12-15T16:42:51.676Z,86.63
2022-12-15T16:43:51.666Z,86.63
2022-12-15T16:44:51.704Z,86.74
2022-12-15T16:45:51.667Z,86.74
2022-12-15T16:46:51.687Z,86.74
2022-12-15T16:47:51.959Z,86.67
2022-12-15T16:48:51.887Z,86.78
2022-12-15T16:49:51.599Z,86.78
2022-12-15T16:50:51.993Z,86.78
2022-12-15T16:51:51.583Z,86.63
2022-12-15T16:52:51.641Z,86.53
2022-12-15T16:53:51.619Z,86.63
2022-12-15T16:54:51.536Z,86.67
2022-12-15T16:55:51.523Z,86.67
2022-12-15T16:56:51.517Z,86.78
2022-12-15T16:57:51.575Z,86.88
2022-12-15T16:58:57.390Z,86.88
2022-12-15T16:59:51.551Z,87.09
2022-12-15T17:00:51.509Z,87.30
2022-12-15T17:01:51.690Z,87.30
2022-12-15T17:02:51.690Z,87.30
2022-12-15T17:03:51.550Z,87.41
2022-12-15T17:04:51.493Z,87.41
2022-12-15T17:05:51.444Z,87.52
2022-12-15T17:06:51.438Z,87.52
2022-12-15T17:07:51.409Z,87.52
2022-12-15T17:08:51.445Z,87.62
2022-12-15T17:09:51.537Z,87.66
2022-12-15T17:10:51.476Z,87.73
2022-12-15T17:11:51.397Z,87.77
2022-12-15T17:12:51.454Z,89.25
2022-12-15T17:13:51.411Z,89.14
2022-12-15T17:14:51.403Z,89.14
2022-12-15T17:15:51.372Z,89.46
2022-12-15T17:16:51.382Z,89.14
2022-12-15T17:17:51.576Z,88.82
2022-12-15T17:18:51.315Z,88.68
2022-12-15T17:20:28.164Z,88.40
2022-12-15T17:20:51.290Z,88.61
2022-12-15T17:21:51.393Z,88.51
2022-12-15T17:22:51.652Z,88.61
2022-12-15T17:23:51.278Z,88.82
2022-12-15T17:24:51.253Z,88.93
2022-12-15T17:26:19.996Z,88.46
2022-12-15T17:26:51.262Z,88.78
2022-12-15T17:27:51.305Z,88.46
2022-12-15T17:28:51.254Z,88.26
2022-12-15T17:29:51.316Z,88.36
2022-12-15T17:30:51.269Z,88.29
2022-12-15T17:31:51.309Z,88.36
2022-12-15T17:32:51.213Z,88.93
2022-12-15T17:33:51.145Z,88.40
2022-12-15T17:34:51.176Z,88.29
2022-12-15T17:35:51.221Z,88.29
2022-12-15T17:36:51.122Z,88.40
2022-12-15T17:37:51.107Z,88.51
2022-12-15T17:38:51.138Z,88.61
2022-12-15T17:39:51.651Z,88.71
2022-12-15T17:40:51.078Z,88.82
2022-12-15T17:42:00.045Z,88.93
2022-12-15T17:42:51.057Z,88.93
2022-12-15T17:44:09.883Z,89.03
2022-12-15T17:44:51.859Z,89.14
2022-12-15T17:45:51.037Z,89.29
2022-12-15T17:46:51.160Z,89.29
2022-12-15T17:47:51.013Z,89.39
2022-12-15T17:48:51.015Z,89.50
2022-12-15T17:49:50.996Z,89.50
2022-12-15T17:50:50.993Z,89.50
2022-12-15T17:51:50.960Z,89.61
2022-12-15T17:52:50.969Z,89.71
2022-12-15T17:53:51.067Z,89.71
2022-12-15T17:54:50.918Z,89.81
2022-12-15T17:55:50.922Z,90.03
2022-12-15T17:56:50.932Z,90.03
2022-12-15T17:57:50.930Z,89.92
2022-12-15T17:58:50.971Z,90.13
2022-12-15T17:59:50.986Z,90.13
2022-12-15T18:00:50.880Z,90.03
2022-12-15T18:01:51.101Z,90.13
2022-12-15T18:02:51.059Z,90.23
2022-12-15T18:03:51.055Z,90.23
2022-12-15T18:04:50.882Z,90.34
2022-12-15T18:05:50.841Z,90.45
2022-12-15T18:06:50.798Z,90.23
2022-12-15T18:07:50.805Z,90.13
2022-12-15T18:08:50.807Z,90.34
2022-12-15T18:09:50.799Z,90.45
2022-12-15T18:10:50.781Z,90.34
2022-12-15T18:11:50.753Z,90.45
2022-12-15T18:12:50.753Z,90.77
2022-12-15T18:13:50.741Z,90.87
2022-12-15T18:14:50.743Z,90.55
2022-12-15T18:15:50.822Z,90.55
2022-12-15T18:16:50.711Z,90.45
2022-12-15T18:17:50.708Z,90.77
2022-12-15T18:18:50.688Z,90.45
2022-12-15T18:19:50.700Z,90.45
2022-12-15T18:20:50.675Z,90.13
2022-12-15T18:21:50.650Z,90.13
2022-12-15T18:22:50.660Z,90.13
2022-12-15T18:23:50.625Z,90.23
2022-12-15T18:24:50.631Z,90.23
2022-12-15T18:25:50.627Z,90.38
2022-12-15T18:26:50.624Z,90.49
2022-12-15T18:27:50.619Z,90.59
2022-12-15T18:28:50.589Z,90.49
2022-12-15T18:29:50.585Z,90.59
2022-12-15T18:30:50.556Z,90.59
2022-12-15T18:31:50.585Z,90.59
2022-12-15T18:32:50.567Z,90.38
2022-12-15T18:33:50.532Z,90.38
2022-12-15T18:34:50.591Z,90.49
2022-12-15T18:35:50.508Z,90.59
2022-12-15T18:36:50.508Z,90.81
2022-12-15T18:37:51.500Z,90.81
2022-12-15T18:38:50.496Z,91.02
2022-12-15T18:39:50.489Z,91.02
2022-12-15T18:40:50.460Z,91.13
2022-12-15T18:41:50.456Z,91.02
2022-12-15T18:42:50.442Z,90.91
2022-12-15T18:43:50.431Z,91.13
2022-12-15T18:44:50.459Z,91.02
2022-12-15T18:45:50.401Z,91.06
2022-12-15T18:46:50.496Z,91.06
2022-12-15T18:47:50.389Z,91.16
2022-12-15T18:48:50.446Z,91.38
2022-12-15T18:49:50.483Z,91.48
2022-12-15T18:50:50.456Z,91.69
2022-12-15T18:51:50.357Z,91.69
2022-12-15T18:52:50.337Z,92.01
2022-12-15T18:53:50.344Z,92.01
2022-12-15T18:54:50.332Z,92.11
2022-12-15T18:55:50.326Z,92.22
2022-12-15T18:56:50.305Z,92.11
2022-12-15T18:57:50.300Z,92.11
2022-12-15T18:58:50.311Z,92.22
2022-12-15T18:59:50.299Z,92.22
2022-12-15T19:00:50.359Z,92.33
2022-12-15T19:01:50.408Z,92.33
2022-12-15T19:02:50.419Z,92.33
2022-12-15T19:03:50.229Z,92.33
2022-12-15T19:04:50.215Z,92.33
2022-12-15T19:05:50.255Z,92.37
2022-12-15T19:06:50.254Z,92.33
2022-12-15T19:07:50.198Z,92.33
2022-12-15T19:08:50.184Z,92.43
2022-12-15T19:09:50.187Z,92.58
2022-12-15T19:10:50.179Z,92.58
2022-12-15T19:11:50.166Z,92.69
2022-12-15T19:12:55.305Z,92.58
2022-12-15T19:13:50.149Z,92.58
2022-12-15T19:14:50.123Z,92.33
2022-12-15T19:15:50.157Z,92.37
2022-12-15T19:16:50.207Z,92.58
2022-12-15T19:17:50.098Z,92.47
2022-12-15T19:18:50.073Z,92.47
2022-12-15T19:19:50.089Z,92.47
2022-12-15T19:20:50.121Z,92.47
2022-12-15T19:21:50.040Z,92.37
2022-12-15T19:22:50.843Z,92.22
2022-12-15T19:23:50.036Z,92.16
2022-12-15T19:24:50.071Z,92.05
2022-12-15T19:25:50.027Z,91.94
2022-12-15T19:26:50.038Z,91.84
2022-12-15T19:27:50.006Z,91.94
2022-12-15T19:28:49.990Z,92.16
2022-12-15T19:29:49.960Z,92.16
2022-12-15T19:30:49.956Z,92.16
2022-12-15T19:31:50.089Z,91.91
2022-12-15T19:32:49.957Z,91.94
2022-12-15T19:33:49.933Z,91.94
2022-12-15T19:34:49.926Z,91.94
2022-12-15T19:35:49.967Z,91.84
2022-12-15T19:36:49.908Z,91.84
2022-12-15T19:37:50.046Z,91.84
2022-12-15T19:38:49.911Z,91.84
2022-12-15T19:39:49.968Z,91.74
2022-12-15T19:40:49.888Z,91.84
2022-12-15T19:41:49.912Z,91.74
2022-12-15T19:42:49.906Z,91.74
2022-12-15T19:43:49.982Z,91.74
2022-12-15T19:44:49.806Z,91.74
2022-12-15T19:45:49.924Z,91.74
2022-12-15T19:46:49.908Z,91.63
2022-12-15T19:47:49.839Z,91.63
2022-12-15T19:48:49.789Z,91.63
2022-12-15T19:49:49.801Z,91.63
2022-12-15T19:50:49.943Z,91.63
2022-12-15T19:51:49.805Z,91.78
2022-12-15T19:52:49.726Z,91.74
2022-12-15T19:53:49.711Z,91.78
2022-12-15T19:54:49.708Z,91.74
2022-12-15T19:55:49.839Z,91.78
2022-12-15T19:56:49.765Z,91.78
2022-12-15T19:57:49.699Z,91.67
2022-12-15T19:58:49.664Z,91.67
2022-12-15T19:59:49.664Z,91.78
2022-12-15T20:00:49.716Z,91.78
2022-12-15T20:01:49.878Z,91.78
2022-12-15T20:02:49.721Z,91.78
2022-12-15T20:03:49.630Z,91.78
2022-12-15T20:04:49.618Z,91.78
2022-12-15T20:05:49.598Z,91.78
2022-12-15T20:06:49.588Z,91.78
2022-12-15T20:07:49.567Z,91.78
2022-12-15T20:08:49.558Z,91.67
2022-12-15T20:09:49.585Z,91.67
2022-12-15T20:10:49.584Z,91.67
2022-12-15T20:11:49.591Z,91.67
2022-12-15T20:12:49.539Z,91.67
2022-12-15T20:13:49.515Z,91.67
2022-12-15T20:14:49.524Z,91.67
2022-12-15T20:15:49.514Z,91.67
2022-12-15T20:16:49.607Z,91.67
2022-12-15T20:17:49.476Z,91.78
2022-12-15T20:18:49.465Z,91.56
